Time;durP1;ratioP1;P1;durP2;ratioP2;P2;SDS_P1;SDS_P2;PMS_P1;PMS_P2;Temp;Humidity;BMP_temperature;BMP_pressure;BME280_temperature;BME280_humidity;BME280_pressure;Samples;Min_cycle;Max_cycle;Signal;HPM_P1;HPM_P2
2023/04/22 00:00:12;;;;;;;46.53;22.53;;;;;;;;;;5057199;28;20040;-80
2023/04/22 00:02:41;;;;;;;79.80;28.77;;;;;;;;;;5055221;28;20024;-79
2023/04/22 00:05:07;;;;;;;100.03;29.03;;;;;;;;;;5062419;28;20013;-79
2023/04/22 00:07:33;;;;;;;66.67;27.87;;;;;;;;;;5055977;28;20017;-81
2023/04/22 00:09:59;;;;;;;46.50;22.87;;;;;;;;;;5066657;28;20021;-81
2023/04/22 00:12:25;;;;;;;40.00;20.67;;;;;;;;;;5049960;28;20013;-81
2023/04/22 00:14:55;;;;;;;73.13;25.30;;;;;;;;;;5056969;28;20092;-81
2023/04/22 00:17:23;;;;;;;54.67;23.50;;;9.30;99.90;;;;;;5056155;28;20071;-80
2023/04/22 00:19:49;;;;;;;85.23;26.80;;;9.40;99.90;;;;;;5046465;28;20046;-80
2023/04/22 00:22:15;;;;;;;65.20;26.63;;;9.40;99.90;;;;;;5045785;28;20045;-80
2023/04/22 00:24:40;;;;;;;57.77;25.07;;;9.40;99.90;;;;;;5042655;28;20052;-81
2023/04/22 00:27:06;;;;;;;73.60;25.87;;;9.40;99.90;;;;;;5047215;28;20044;-81
2023/04/22 00:29:32;;;;;;;62.90;24.80;;;9.50;99.90;;;;;;5062282;28;20199;-80
2023/04/22 00:32:00;;;;;;;37.37;20.20;;;;;;;;;;5043453;28;20033;-81
2023/04/22 00:34:26;;;;;;;37.60;20.27;;;;;;;;;;5047495;28;20017;-80
2023/04/22 00:36:52;;;;;;;52.30;25.20;;;;;;;;;;5056636;28;20034;-81
2023/04/22 00:39:21;;;;;;;82.53;28.97;;;;;;;;;;5053800;28;20113;-80
2023/04/22 00:41:47;;;;;;;69.50;28.20;;;;;;;;;;5046456;28;20029;-81
2023/04/22 00:44:13;;;;;;;48.33;24.47;;;;;;;;;;5055574;28;20071;-81
2023/04/22 00:46:40;;;;;;;60.13;25.67;;;;;;;;;;5055623;28;20021;-81
2023/04/22 00:49:06;;;;;;;54.93;23.97;;;;;;;;;;5063559;28;20024;-80
2023/04/22 00:51:32;;;;;;;55.53;25.10;;;;;;;;;;5055085;28;20059;-80
2023/04/22 00:54:00;;;;;;;58.83;24.67;;;;;;;;;;5051934;28;20026;-81
2023/04/22 00:56:27;;;;;;;52.40;23.60;;;;;;;;;;5062908;28;20025;-79
2023/04/22 00:58:54;;;;;;;47.07;23.53;;;;;;;;;;5054554;28;20104;-80
2023/04/22 01:01:20;;;;;;;60.80;26.97;;;;;;;;;;5051581;28;20057;-81
2023/04/22 01:03:47;;;;;;;54.43;25.27;;;;;;;;;;5060438;28;20018;-79
2023/04/22 01:06:13;;;;;;;59.70;26.00;;;;;;;;;;5060456;28;20201;-81
2023/04/22 01:08:42;;;;;;;59.20;26.20;;;;;;;;;;5045276;28;20025;-80
2023/04/22 01:11:08;;;;;;;61.20;27.47;;;;;;;;;;5055546;28;20041;-80
2023/04/22 01:13:35;;;;;;;66.80;27.13;;;;;;;;;;5053062;28;20029;-80
2023/04/22 01:16:02;;;;;;;60.60;28.00;;;;;;;;;;5060640;28;20021;-80
2023/04/22 01:18:28;;;;;;;78.30;30.70;;;;;;;;;;5053104;28;20054;-80
2023/04/22 01:20:55;;;;;;;66.30;28.90;;;;;;;;;;5053162;28;20041;-80
2023/04/22 01:23:21;;;;;;;65.77;27.63;;;;;;;;;;5054110;28;20147;-80
2023/04/22 01:25:48;;;;;;;60.60;27.60;;;;;;;;;;5053033;28;20241;-80
2023/04/22 01:28:15;;;;;;;71.80;29.13;;;;;;;;;;5060043;28;20033;-80
2023/04/22 01:30:42;;;;;;;47.90;25.77;;;;;;;;;;5053271;28;20017;-80
2023/04/22 01:33:08;;;;;;;66.30;26.50;;;;;;;;;;5060450;28;20025;-81
2023/04/22 01:35:38;;;;;;;48.40;22.57;;;;;;;;;;5046276;28;20021;-81
2023/04/22 01:38:05;;;;;;;56.10;25.23;;;;;;;;;;5052634;28;20080;-81
2023/04/22 01:40:32;;;;;;;44.00;23.67;;;;;;;;;;5053526;28;20033;-81
2023/04/22 01:43:02;;;;;;;50.63;24.67;;;;;;;;;;5054265;28;20029;-80
2023/04/22 01:45:28;;;;;;;71.60;26.33;;;;;;;;;;5052495;28;20088;-79
2023/04/22 01:47:57;;;;;;;53.13;24.57;;;;;;;;;;5059637;28;20043;-81
2023/04/22 01:50:23;;;;;;;56.27;24.60;;;;;;;;;;5054031;28;20026;-81
2023/04/22 01:52:50;;;;;;;55.47;26.10;;;;;;;;;;5044449;28;20049;-81
2023/04/22 01:55:18;;;;;;;54.53;23.87;;;;;;;;;;5053202;28;20014;-81
2023/04/22 01:57:44;;;;;;;67.87;26.73;;;;;;;;;;5059127;28;20017;-80
2023/04/22 02:00:11;;;;;;;67.23;25.83;;;;;;;;;;5054611;28;20055;-80
2023/04/22 02:02:39;;;;;;;77.60;27.97;;;;;;;;;;5056736;28;20017;-80
2023/04/22 02:05:06;;;;;;;47.77;23.37;;;;;;;;;;5042726;28;20028;-80
2023/04/22 02:07:32;;;;;;;48.27;23.83;;;;;;;;;;5061265;28;20033;-81
2023/04/22 02:10:01;;;;;;;71.37;26.83;;;;;;;;;;5054844;28;20025;-80
2023/04/22 02:12:30;;;;;;;51.83;22.50;;;;;;;;;;5058085;28;20017;-80
2023/04/22 02:14:56;;;;;;;49.23;23.27;;;;;;;;;;5053027;28;20029;-80
2023/04/22 02:17:25;;;;;;;55.43;23.40;;;;;;;;;;5056967;28;20090;-80
2023/04/22 02:19:51;;;;;;;45.07;20.53;;;;;;;;;;5052768;28;20029;-81
2023/04/22 02:22:17;;;;;;;43.47;20.20;;;;;;;;;;5052324;28;21165;-81
2023/04/22 02:24:43;;;;;;;57.67;23.73;;;;;;;;;;5059336;28;20043;-81
2023/04/22 02:27:09;;;;;;;50.30;22.90;;;;;;;;;;5042961;28;20022;-81
2023/04/22 02:29:35;;;;;;;47.80;21.90;;;;;;;;;;5049827;28;20028;-81
2023/04/22 02:32:01;;;;;;;62.03;24.30;;;;;;;;;;5057817;28;20013;-81
2023/04/22 02:34:27;;;;;;;62.17;22.90;;;;;;;;;;5051436;28;20021;-80
2023/04/22 02:36:55;;;;;;;60.07;22.87;;;;;;;;;;5052354;28;21324;-81
2023/04/22 02:39:21;;;;;;;51.50;21.17;;;;;;;;;;5051759;28;20028;-80
2023/04/22 02:41:50;;;;;;;43.33;21.03;;;;;;;;;;5059511;28;20027;-80
2023/04/22 02:44:16;;;;;;;57.00;24.00;;;;;;;;;;5041974;28;20036;-81
2023/04/22 02:46:42;;;;;;;54.47;23.17;;;;;;;;;;5046170;28;20056;-81
2023/04/22 02:49:10;;;;;;;51.83;22.90;;;;;;;;;;5054930;28;20009;-81
2023/04/22 02:51:40;;;;;;;48.37;22.20;;;;;;;;;;5052980;28;20025;-80
2023/04/22 02:54:09;;;;;;;51.47;20.93;;;;;;;;;;5062360;28;20051;-81
2023/04/22 02:56:35;;;;;;;41.77;19.77;;;;;;;;;;5058933;28;20027;-81
2023/04/22 02:59:01;;;;;;;40.90;19.13;;;;;;;;;;5061792;28;20085;-80
2023/04/22 03:01:27;;;;;;;40.83;18.93;;;;;;;;;;5057292;28;20025;-80
2023/04/22 03:03:53;;;;;;;49.80;20.00;;;;;;;;;;5044143;28;20021;-80
2023/04/22 03:06:21;;;;;;;36.40;18.20;;;;;;;;;;5052060;28;20032;-81
2023/04/22 03:08:48;;;;;;;46.83;19.57;;;;;;;;;;5056707;28;20085;-80
2023/04/22 03:11:14;;;;;;;45.80;19.80;;;;;;;;;;5044367;28;20041;-80
2023/04/22 03:13:40;;;;;;;66.47;22.03;;;;;;;;;;5050287;28;20073;-80
2023/04/22 03:16:06;;;;;;;49.03;20.07;;;;;;;;;;5052898;28;20033;-81
2023/04/22 03:18:32;;;;;;;49.53;19.87;;;;;;;;;;5043404;28;20093;-80
2023/04/22 03:20:59;;;;;;;51.80;20.30;;;;;;;;;;5055777;28;20037;-80
2023/04/22 03:23:33;;;;;;;50.23;20.00;;;;;;;;;;5049789;28;20033;-80
2023/04/22 03:25:59;;;;;;;42.43;19.97;;;;;;;;;;5053616;28;20155;-81
2023/04/22 03:28:25;;;;;;;43.00;19.00;;;;;;;;;;5052460;28;20035;-80
2023/04/22 03:30:51;;;;;;;29.70;15.80;;;;;;;;;;5052394;28;20025;-81
2023/04/22 03:33:17;;;;;;;31.23;16.63;;;;;;;;;;5050509;28;20034;-81
2023/04/22 03:35:47;;;;;;;36.57;16.77;;;;;;;;;;5052031;28;20017;-81
2023/04/22 03:38:13;;;;;;;36.13;17.03;;;;;;;;;;5050747;28;20021;-81
2023/04/22 03:40:41;;;;;;;33.97;15.70;;;;;;;;;;5049985;28;20046;-81
2023/04/22 03:43:17;;;;;;;23.87;13.87;;;;;;;;;;5043210;28;20072;-80
2023/04/22 03:45:44;;;;;;;28.00;13.87;;;;;;;;;;5052723;28;20067;-80
2023/04/22 03:48:10;;;;;;;26.33;14.80;;;;;;;;;;5049730;28;20033;-80
2023/04/22 03:50:36;;;;;;;31.57;15.50;;;;;;;;;;5046243;28;20025;-80
2023/04/22 03:53:02;;;;;;;36.00;15.93;;;;;;;;;;5053471;28;20026;-81
2023/04/22 03:55:28;;;;;;;30.87;15.50;;;;;;;;;;5046478;28;20039;-80
2023/04/22 03:57:54;;;;;;;23.60;13.37;;;;;;;;;;5061855;28;21570;-81
2023/04/22 04:00:20;;;;;;;19.97;12.57;;;;;;;;;;5063522;28;20031;-80
2023/04/22 04:02:46;;;;;;;25.47;14.23;;;;;;;;;;5053284;28;20037;-81
2023/04/22 04:05:12;;;;;;;21.50;12.73;;;;;;;;;;5059943;28;20041;-81
2023/04/22 04:07:38;;;;;;;20.73;12.70;;;;;;;;;;5052466;28;20432;-80
2023/04/22 04:10:05;;;;;;;16.67;10.43;;;;;;;;;;5057331;28;20017;-80
2023/04/22 04:12:31;;;;;;;15.80;10.70;;;;;;;;;;5059489;28;20035;-80
2023/04/22 04:14:57;;;;;;;13.77;9.87;;;;;;;;;;5060564;28;20017;-80
2023/04/22 04:17:24;;;;;;;16.97;9.83;;;;;;;;;;5055844;28;20052;-81
2023/04/22 04:19:54;;;;;;;14.10;9.27;;;;;;;;;;5055689;28;20040;-81
2023/04/22 04:22:23;;;;;;;13.43;8.53;;;;;;;;;;5056255;28;20010;-81
2023/04/22 04:24:54;;;;;;;15.73;9.07;;;;;;;;;;5045229;28;20059;-80
2023/04/22 04:27:23;;;;;;;14.20;8.83;;;;;;;;;;5062972;28;20025;-80
2023/04/22 04:29:49;;;;;;;11.63;8.20;;;;;;;;;;5052072;28;20013;-80
2023/04/22 04:32:17;;;;;;;9.90;7.87;;;;;;;;;;5051958;28;20014;-80
2023/04/22 04:34:43;;;;;;;16.70;9.00;;;;;;;;;;5057178;28;20097;-80
2023/04/22 04:37:09;;;;;;;12.90;9.13;;;;;;;;;;5054675;28;20033;-81
2023/04/22 04:39:37;;;;;;;16.17;9.60;;;;;;;;;;5048423;28;20067;-80
2023/04/22 04:42:03;;;;;;;15.70;7.90;;;;;;;;;;5055126;28;20021;-81
2023/04/22 04:44:34;;;;;;;14.53;8.60;;;;;;;;;;5053932;28;20037;-81
2023/04/22 04:47:04;;;;;;;12.37;7.97;;;;;;;;;;5053037;28;20020;-79
2023/04/22 04:49:30;;;;;;;13.17;8.70;;;;;;;;;;5052249;28;20038;-80
2023/04/22 04:51:57;;;;;;;12.53;8.40;;;;;;;;;;5055895;28;20025;-80
2023/04/22 04:54:25;;;;;;;12.80;9.00;;;;;;;;;;5053779;28;20032;-80
2023/04/22 04:56:51;;;;;;;13.47;8.70;;;;;;;;;;5054114;28;20021;-81
2023/04/22 04:59:17;;;;;;;12.30;7.53;;;;;;;;;;5054333;28;20128;-80
2023/04/22 05:01:44;;;;;;;11.47;7.47;;;;;;;;;;5062281;28;20061;-80
2023/04/22 05:04:10;;;;;;;13.53;8.27;;;;;;;;;;5053082;28;20023;-81
2023/04/22 05:06:36;;;;;;;11.10;8.10;;;;;;;;;;5054328;28;20032;-80
2023/04/22 05:09:02;;;;;;;9.90;7.90;;;;;;;;;;5045196;28;20041;-81
2023/04/22 05:11:28;;;;;;;12.47;8.27;;;;;;;;;;5053799;28;20036;-80
2023/04/22 05:13:55;;;;;;;11.67;7.70;;;;;;;;;;5055826;28;20025;-80
2023/04/22 05:16:21;;;;;;;12.33;8.73;;;;;;;;;;5055308;28;20028;-81
2023/04/22 05:18:47;;;;;;;10.90;7.77;;;;;;;;;;5052429;28;20085;-80
2023/04/22 05:21:16;;;;;;;13.63;7.70;;;;;;;;;;5053390;28;20028;-80
2023/04/22 05:23:42;;;;;;;12.13;7.03;;;;;;;;;;5053988;28;20076;-80
2023/04/22 05:26:08;;;;;;;8.83;6.70;;;;;;;;;;5058956;28;20012;-80
2023/04/22 05:28:34;;;;;;;12.60;6.90;;;;;;;;;;5045741;28;20096;-80
2023/04/22 05:31:00;;;;;;;10.10;7.70;;;;;;;;;;5051758;28;20088;-81
2023/04/22 05:33:26;;;;;;;9.87;6.83;;;;;;;;;;5051689;28;20036;-80
2023/04/22 05:35:52;;;;;;;8.17;6.43;;;;;;;;;;5053713;28;20013;-81
2023/04/22 05:38:18;;;;;;;10.07;5.80;;;;;;;;;;5061031;28;20089;-80
2023/04/22 05:40:44;;;;;;;10.13;6.20;;;;;;;;;;5044525;28;20049;-80
2023/04/22 05:43:10;;;;;;;10.97;7.50;;;;;;;;;;5053074;28;20020;-80
2023/04/22 05:45:36;;;;;;;10.23;6.63;;;;;;;;;;5058171;28;20096;-80
2023/04/22 05:48:05;;;;;;;9.30;6.47;;;;;;;;;;5053333;28;20032;-80
2023/04/22 05:50:31;;;;;;;8.87;5.60;;;;;;;;;;5052214;28;20048;-81
2023/04/22 05:53:00;;;;;;;12.87;5.73;;;;;;;;;;5053002;28;20096;-79
2023/04/22 05:55:29;;;;;;;10.00;6.70;;;;;;;;;;5055519;28;20032;-79
2023/04/22 05:57:55;;;;;;;8.43;5.23;;;;;;;;;;5056043;28;20022;-80
2023/04/22 06:00:21;;;;;;;12.23;6.37;;;;;;;;;;5050788;28;20044;-80
2023/04/22 06:02:47;;;;;;;7.60;6.13;;;;;;;;;;5051455;28;20052;-80
2023/04/22 06:05:13;;;;;;;9.33;5.77;;;;;;;;;;5050813;28;20041;-81
2023/04/22 06:07:39;;;;;;;7.93;5.97;;;;;;;;;;5059492;28;20036;-80
2023/04/22 06:10:08;;;;;;;13.40;8.83;;;;;;;;;;5051538;28;20088;-81
2023/04/22 06:12:35;;;;;;;10.87;7.37;;;;;;;;;;5051900;28;20018;-79
2023/04/22 06:15:03;;;;;;;9.20;6.33;;;;;;;;;;5055218;28;20092;-81
2023/04/22 06:17:29;;;;;;;11.67;7.30;;;;;;;;;;5053686;28;20041;-80
2023/04/22 06:19:55;;;;;;;10.80;4.63;;;;;;;;;;5051170;28;20048;-79
2023/04/22 06:22:21;;;;;;;5.67;4.47;;;;;;;;;;5050034;28;20025;-80
2023/04/22 06:24:47;;;;;;;6.23;4.77;;;;;;;;;;5053325;28;20048;-80
2023/04/22 06:27:17;;;;;;;6.53;4.30;;;;;;;;;;5052324;28;20053;-80
2023/04/22 06:29:45;;;;;;;8.40;4.50;;;;;;;;;;5050369;28;20044;-81
2023/04/22 06:32:26;;;;;;;6.63;4.60;;;;;;;;;;5051103;28;20025;-80
2023/04/22 06:34:54;;;;;;;8.43;4.07;;;;;;;;;;5057702;28;20060;-82
2023/04/22 06:37:25;;;;;;;8.90;3.70;;;;;;;;;;5050079;28;20086;-81
2023/04/22 06:39:59;;;;;;;5.50;4.07;;;;;;;;;;5049837;28;20029;-81
2023/04/22 06:42:27;;;;;;;6.07;3.63;;;;;;;;;;5052031;28;20025;-81
2023/04/22 06:44:53;;;;;;;5.30;4.10;;;;;;;;;;5050991;28;20097;-80
2023/04/22 06:47:24;;;;;;;4.80;4.10;;;;;;;;;;5059745;28;20065;-81
2023/04/22 06:49:52;;;;;;;5.07;3.33;;;;;;;;;;5042499;28;20028;-79
2023/04/22 06:52:19;;;;;;;4.37;3.50;;;;;;;;;;5050101;28;20025;-81
2023/04/22 06:54:45;;;;;;;6.33;3.37;;;;;;;;;;5055560;28;20392;-81
2023/04/22 07:00:19;;;;;;;6.27;3.50;;;;;;;;;;4985083;28;20049;-79
2023/04/22 07:02:47;;;;;;;6.37;3.40;;;;;;;;;;4988838;28;20015;-81
2023/04/22 07:05:15;;;;;;;7.73;3.50;;;;;;;;;;4977599;28;20047;-80
2023/04/22 07:07:42;;;;;;;4.90;3.23;;;;;;;;;;4989753;28;20046;-81
2023/04/22 07:10:13;;;;;;;6.97;2.97;;;;;;;;;;4988804;28;20055;-79
2023/04/22 07:12:39;;;;;;;4.50;3.20;;;;;;;;;;4985301;28;20054;-80
2023/04/22 07:15:05;;;;;;;5.53;3.10;;;;;;;;;;4985184;28;20027;-80
2023/04/22 07:17:31;;;;;;;6.10;3.00;;;;;;;;;;4973620;28;20039;-81
2023/04/22 07:19:57;;;;;;;5.67;3.00;;;;;;;;;;4985768;28;20047;-80
2023/04/22 07:22:28;;;;;;;4.87;2.83;;;;;;;;;;4990188;28;20045;-80
2023/04/22 07:24:56;;;;;;;5.60;3.10;;;;;;;;;;4991422;28;20035;-81
2023/04/22 07:27:22;;;;;;;6.00;3.17;;;;;;;;;;4992078;28;20136;-81
2023/04/22 07:29:51;;;;;;;3.80;3.00;;;;;;;;;;4994177;28;20047;-80
2023/04/22 07:32:17;;;;;;;5.90;2.80;;;;;;;;;;5051151;28;20202;-80
2023/04/22 07:34:43;;;;;;;6.70;3.23;;;;;;;;;;5051477;28;20038;-81
2023/04/22 07:37:09;;;;;;;5.20;2.90;;;;;;;;;;5051071;28;20038;-81
2023/04/22 07:39:38;;;;;;;4.13;3.03;;;;;;;;;;5054750;28;20026;-80
2023/04/22 07:42:06;;;;;;;5.33;3.17;;;;;;;;;;5055943;28;20049;-80
2023/04/22 07:44:35;;;;;;;4.20;3.20;;;;;;;;;;5053948;28;20126;-80
2023/04/22 07:47:01;;;;;;;7.63;3.77;;;;;;;;;;5051249;28;20029;-81
2023/04/22 07:49:27;;;;;;;4.43;2.70;;;;;;;;;;5052940;28;20180;-81
2023/04/22 07:51:56;;;;;;;5.07;2.70;;;;;;;;;;5058156;28;20052;-80
2023/04/22 07:54:22;;;;;;;3.90;2.80;;;;;;;;;;5052661;28;20035;-80
2023/04/22 07:56:52;;;;;;;5.93;3.13;;;;;;;;;;5051662;28;20017;-81
2023/04/22 07:59:18;;;;;;;4.57;2.90;;;;;;;;;;5052205;28;20052;-81
2023/04/22 08:01:45;;;;;;;3.67;2.60;;;;;;;;;;5055934;28;20040;-79
2023/04/22 08:04:11;;;;;;;5.83;3.00;;;;;;;;;;5047224;28;20025;-81
2023/04/22 08:06:37;;;;;;;6.83;2.83;;;;;;;;;;5054693;28;20751;-78
2023/04/22 08:09:03;;;;;;;3.37;2.53;;;;;;;;;;5043155;28;20048;-81
2023/04/22 08:11:29;;;;;;;10.57;3.00;;;;;;;;;;5052049;28;20028;-81
2023/04/22 08:14:03;;;;;;;5.95;2.70;;;;;;;;;;5049774;28;20026;-81
2023/04/22 08:16:29;;;;;;;3.17;2.63;;;;;;;;;;5059199;28;20043;-81
2023/04/22 08:19:02;;;;;;;5.68;3.15;;;;;;;;;;5050074;28;20055;-79
2023/04/22 08:21:31;;;;;;;4.07;2.50;;;;;;;;;;5055957;28;20042;-81
2023/04/22 08:23:58;;;;;;;9.00;2.90;;;;;;;;;;5054450;28;20085;-80
2023/04/22 08:26:24;;;;;;;3.00;2.30;;;;;;;;;;5054773;28;20025;-80
2023/04/22 08:28:50;;;;;;;4.45;2.17;;;;;;;;;;5049701;28;20034;-80
2023/04/22 08:31:19;;;;;;;3.00;2.70;;;;;;;;;;5050913;28;20051;-80
2023/04/22 08:33:47;;;;;;;3.45;2.65;;;;;;;;;;5051211;28;20124;-79
2023/04/22 08:36:15;;;;;;;7.22;2.88;;;;;;;;;;5054112;28;20029;-81
2023/04/22 08:38:44;;;;;;;3.95;3.22;;;;;;;;;;5053998;28;20089;-79
2023/04/22 08:41:14;;;;;;;5.35;3.60;;;;;;;;;;5056255;28;20049;-80
2023/04/22 08:43:40;;;;;;;5.10;3.22;;;;;;;;;;5050799;28;20031;-79
2023/04/22 08:46:06;;;;;;;4.60;3.00;;;;;;;;;;5049922;28;20060;-79
2023/04/22 08:48:32;;;;;;;4.80;2.78;;;;;;;;;;5051904;28;20017;-79
2023/04/22 08:50:59;;;;;;;3.17;2.10;;;;;;;;;;5049077;28;20064;-81
2023/04/22 08:53:35;;;;;;;;;;;;;;;;;;;;;
2023/04/22 08:59:01;;;;;;;3.78;2.25;;;;;;;;;;5050711;28;20045;-80
2023/04/22 09:01:30;;;;;;;6.28;3.10;;;;;;;;;;5050387;28;20094;-81
2023/04/22 09:03:57;;;;;;;3.30;2.33;;;;;;;;;;5050146;28;20009;-80
2023/04/22 09:06:26;;;;;;;5.68;2.60;;;;;;;;;;5051260;28;20028;-80
2023/04/22 09:08:57;;;;;;;4.13;2.03;;;;;;;;;;5051137;28;20017;-79
2023/04/22 09:11:34;;;;;;;5.95;2.38;;;;;;;;;;5057230;28;20062;-79
2023/04/22 09:14:02;;;;;;;2.13;1.63;;;;;;;;;;5051242;28;20013;-78
2023/04/22 09:16:32;;;;;;;3.63;1.80;;;;;;;;;;5050988;28;20026;-80
2023/04/22 09:19:10;;;;;;;6.55;1.98;;;;;;;;;;5051604;28;20110;-83
2023/04/22 09:21:36;;;;;;;5.32;2.10;;;;;;;;;;5052418;28;20041;-80
2023/04/22 09:24:05;;;;;;;4.68;1.50;;;;;;;;;;5043818;28;20009;-82
2023/04/22 09:26:38;;;;;;;6.07;2.03;;;;;;;;;;5050855;28;20029;-81
2023/04/22 09:29:08;;;;;;;6.80;1.67;;;;;;;;;;5055498;28;20025;-79
2023/04/22 09:31:36;;;;;;;4.03;1.40;;;;;;;;;;5051903;28;20021;-79
2023/04/22 09:34:03;;;;;;;4.95;1.83;;;;;;;;;;5051722;28;20026;-79
2023/04/22 09:36:41;;;;;;;3.67;1.58;;;;;;;;;;5057710;28;20033;-79
2023/04/22 09:39:07;;;;;;;7.07;2.00;;;;;;;;;;5044797;28;20072;-80
2023/04/22 09:41:37;;;;;;;4.00;1.67;;;;;;;;;;5051335;28;20044;-81
2023/04/22 09:44:04;;;;;;;4.45;1.40;;;;;;;;;;5047734;28;20080;-80
2023/04/22 09:46:31;;;;;;;2.53;1.48;;;;;;;;;;5046151;28;20044;-79
2023/04/22 09:49:00;;;;;;;2.67;1.20;;;;;;;;;;5049118;28;20025;-80
2023/04/22 09:51:26;;;;;;;5.68;1.90;;;;;;;;;;5050811;28;20036;-79
2023/04/22 09:54:09;;;;;;;3.50;1.95;;;;;;;;;;5049284;28;20048;-80
2023/04/22 09:56:48;;;;;;;2.17;1.60;;;;;;;;;;5056193;28;20021;-80
2023/04/22 09:59:25;;;;;;;3.67;1.80;;;;;;;;;;5048627;28;20038;-82
2023/04/22 10:01:52;;;;;;;6.90;1.95;;;;;;;;;;5049896;28;20068;-79
2023/04/22 10:04:23;;;;;;;3.83;1.45;;;;;;;;;;5049111;28;20022;-80
2023/04/22 10:06:52;;;;;;;3.25;1.63;;;;;;;;;;5049482;28;20020;-79
2023/04/22 10:09:19;;;;;;;5.70;1.95;;;;;;;;;;5056821;28;20025;-79
2023/04/22 10:11:48;;;;;;;5.95;2.00;;;;;;;;;;5048695;28;20051;-79
2023/04/22 10:14:14;;;;;;;5.65;1.80;;;;;;;;;;5053864;28;20018;-79
2023/04/22 10:16:42;;;;;;;2.72;1.38;;;;;;;;;;5048101;28;20029;-79
2023/04/22 10:19:10;;;;;;;7.70;1.63;;;;;;;;;;5057527;28;20049;-78
2023/04/22 10:21:37;;;;;;;5.07;1.98;;;;;;;;;;5052604;28;20036;-79
2023/04/22 10:24:04;;;;;;;1.92;1.17;;;;;;;;;;5051543;28;20037;-77
2023/04/22 10:26:44;;;;;;;4.90;1.35;;;;;;;;;;5050281;28;20032;-79
2023/04/22 10:29:16;;;;;;;4.05;1.40;;;;;;;;;;5049269;28;20022;-80
2023/04/22 10:31:42;;;;;;;;;;;;;;;;;;5051984;28;20026;-79
2023/04/22 10:34:10;;;;;;;5.68;1.75;;;;;;;;;;5053796;28;19920;-79
2023/04/22 10:36:54;;;;;;;3.17;1.20;;;;;;;;;;5055950;28;20039;-80
2023/04/22 10:39:21;;;;;;;2.72;1.20;;;;;;;;;;5047847;28;20029;-79
2023/04/22 10:41:56;;;;;;;2.17;1.20;;;;;;;;;;5054692;28;20052;-80
2023/04/22 10:44:22;;;;;;;2.45;1.30;;;;;;;;;;5055961;28;20033;-80
2023/04/22 10:46:52;;;;;;;3.13;1.60;;;;;;;;;;5056147;28;20014;-80
2023/04/22 10:49:22;;;;;;;3.72;1.58;;;;;;;;;;5055827;28;20048;-78
2023/04/22 10:51:51;;;;;;;2.38;1.25;;;;;;;;;;5057521;28;20025;-79
2023/04/22 10:54:35;;;;;;;4.38;1.50;;;;;;;;;;5055602;28;20101;-78
2023/04/22 10:57:05;;;;;;;10.13;1.80;;;;;;;;;;5052565;28;20039;-80
2023/04/22 10:59:35;;;;;;;2.40;1.60;;;;;;;;;;5056590;28;20085;-80
2023/04/22 11:02:08;;;;;;;3.10;1.48;;;;;;;;;;5051419;28;20055;-79
2023/04/22 11:04:36;;;;;;;5.60;1.48;;;;;;;;;;5049701;28;20033;-80
2023/04/22 11:07:30;;;;;;;5.32;1.77;;;;;;;;;;5046934;28;20025;-79
2023/04/22 11:10:06;;;;;;;3.15;1.50;;;;;;;;;;5055155;28;20013;-79
2023/04/22 11:12:38;;;;;;;3.05;1.58;;;;;;;;;;5046973;28;20092;-79
2023/04/22 11:15:07;;;;;;;;;;;;;;;;;;5053834;28;20025;-78
2023/04/22 11:17:35;;;;;;;4.88;1.70;;;;;;;;;;5058513;28;19920;-78
2023/04/22 11:20:03;;;;;;;3.13;1.70;;;;;;;;;;5052979;28;20048;-80
2023/04/22 11:22:34;;;;;;;2.28;1.20;;;;;;;;;;5054232;28;20086;-79
2023/04/22 11:25:00;;;;;;;3.67;1.85;;;;;;;;;;5054913;28;20014;-80
2023/04/22 11:27:29;;;;;;;4.90;1.70;;;;;;;;;;5046758;28;20013;-79
2023/04/22 11:30:11;;;;;;;3.55;1.50;;;;;;;;;;5051834;28;20021;-78
2023/04/22 11:32:41;;;;;;;5.65;1.58;;;;;;;;;;5064172;28;20021;-78
2023/04/22 11:35:09;;;;;;;4.38;1.70;;;;;;;;;;5054434;28;20041;-79
2023/04/22 11:37:45;;;;;;;3.85;2.28;;;;;;;;;;5056304;28;20025;-80
2023/04/22 11:40:12;;;;;;;5.93;1.92;;;;;;;;;;5064896;28;20029;-79
2023/04/22 11:42:39;;;;;;;2.95;1.38;;;;;;;;;;5056486;28;20035;-79
2023/04/22 11:45:06;;;;;;;4.10;1.63;;;;;;;;;;5057154;28;20024;-80
2023/04/22 11:47:33;;;;;;;5.05;1.58;;;;;;;;;;5054850;28;20075;-80
2023/04/22 11:50:00;;;;;;;4.88;1.88;;;;;;;;;;5056577;28;20028;-79
2023/04/22 11:52:46;;;;;;;5.88;2.03;;;;;;;;;;5047594;28;20013;-80
2023/04/22 11:55:16;;;;;;;4.60;1.90;;;;;;;;;;5057410;28;20052;-78
2023/04/22 11:57:42;;;;;;;3.85;1.95;;;;;;;;;;5054935;28;20013;-79
2023/04/22 12:00:12;;;;;;;4.72;1.63;;;;;;;;;;5053562;28;20033;-79
2023/04/22 12:02:39;;;;;;;4.05;1.98;;;;;;;;;;5052532;28;20033;-80
2023/04/22 12:05:08;;;;;;;4.55;2.10;;;;;;;;;;5054502;28;20025;-80
2023/04/22 12:07:34;;;;;;;4.90;2.00;;;;;;;;;;5051384;28;20002;-79
2023/04/22 12:10:02;;;;;;;2.65;1.77;;;;;;;;;;5058974;28;20049;-80
2023/04/22 12:12:28;;;;;;;7.90;3.20;;;;;;;;;;5059564;28;20025;-81
2023/04/22 12:14:56;;;;;;;3.42;2.08;;;;;;;;;;5055045;28;20045;-80
2023/04/22 12:17:25;;;;;;;3.25;1.95;;;;;;;;;;5059140;28;20016;-81
2023/04/22 12:19:55;;;;;;;4.68;2.10;;;;;;;;;;5057368;28;20016;-81
2023/04/22 12:22:25;;;;;;;5.93;2.03;;;;;;;;;;5053413;28;20354;-81
2023/04/22 12:24:51;;;;;;;7.63;2.63;;;;;;;;;;5063920;28;20043;-82
2023/04/22 12:27:17;;;;;;;8.55;2.67;;;;;;;;;;5056726;28;20013;-81
2023/04/22 12:29:51;;;;;;;6.63;3.97;;;;;;;;;;5047365;28;20029;-81
2023/04/22 12:32:17;;;;;;;6.28;3.67;;;;;;;;;;5054780;28;20012;-81
2023/04/22 12:34:43;;;;;;;5.22;3.40;;;;;;;;;;5053149;28;20029;-81
2023/04/22 12:37:09;;;;;;;9.52;6.38;;;;;;;;;;5052106;28;20052;-82
2023/04/22 12:39:36;;;;;;;9.75;6.53;;;;;;;;;;5056807;28;20025;-79
2023/04/22 12:42:04;;;;;;;9.68;6.10;;;;;;;;;;5059175;28;20029;-82
2023/04/22 12:44:30;;;;;;;13.93;9.18;;;;;;;;;;5048875;28;20040;-85
2023/04/22 12:46:56;;;;;;;10.40;5.32;;;;;;;;;;5049710;28;20025;-82
2023/04/22 12:49:22;;;;;;;12.07;5.60;;;;;;;;;;5055452;28;20025;-81
2023/04/22 12:51:48;;;;;;;7.97;5.25;;;;;;;;;;5061454;28;20036;-82
2023/04/22 12:54:14;;;;;;;4.65;3.47;;;;;;;;;;5050318;28;20044;-83
2023/04/22 12:56:40;;;;;;;5.28;1.58;;;;;;;;;;5054982;28;20025;-81
2023/04/22 12:59:06;;;;;;;4.88;1.48;;;;;;;;;;5053106;28;20025;-82
2023/04/22 13:01:32;;;;;;;2.20;1.27;;;;;;;;;;5050530;28;20034;-82
2023/04/22 13:03:58;;;;;;;3.33;1.75;;;;;;;;;;5054789;28;20059;-80
2023/04/22 13:06:25;;;;;;;4.40;2.10;;;;;;;;;;5056644;28;20020;-82
2023/04/22 13:08:52;;;;;;;4.70;1.83;;;;;;;;;;5049510;28;20017;-82
2023/04/22 13:11:18;;;;;;;6.03;1.63;;;;;;;;;;5047317;28;20103;-81
2023/04/22 13:13:44;;;;;;;6.55;2.67;;;;;;;;;;5057071;28;20026;-81
2023/04/22 13:16:10;;;;;;;5.65;1.73;;;;;;;;;;5056414;28;20005;-81
2023/04/22 13:18:36;;;;;;;2.95;1.77;;;;;;;;;;5055082;28;20017;-80
2023/04/22 13:21:02;;;;;;;3.05;1.80;;;;;;;;;;5052083;28;20026;-82
2023/04/22 13:23:29;;;;;;;4.82;2.60;;;;;;;;;;5060649;28;20009;-79
2023/04/22 13:25:55;;;;;;;9.10;3.58;;;;;;;;;;5057645;28;20081;-81
2023/04/22 13:28:21;;;;;;;5.10;2.15;;;;;;;;;;5056252;28;20048;-81
2023/04/22 13:30:48;;;;;;;3.35;2.20;;;;;;;;;;5077126;23;20048;-81
2023/04/22 13:33:14;;;;;;;5.68;1.98;;;;;;;;;;5047503;28;20051;-78
2023/04/22 13:35:42;;;;;;;7.05;2.70;;;;;;;;;;5054031;28;20021;-78
2023/04/22 13:38:08;;;;;;;3.90;2.22;;;;;;;;;;5052168;28;20257;-79
2023/04/22 13:40:35;;;;;;;4.63;1.80;;;;;;;;;;5051083;28;20021;-80
2023/04/22 13:43:03;;;;;;;3.85;2.20;;;;;;;;;;5050903;28;20033;-78
2023/04/22 13:45:29;;;;;;;3.13;1.80;;;;;;;;;;5052824;28;20013;-78
2023/04/22 13:47:55;;;;;;;3.55;2.08;;;;;;;;;;5073348;28;20055;-79
2023/04/22 13:50:22;;;;;;;3.55;1.73;;;;;;;;;;5050324;28;20036;-81
2023/04/22 13:52:49;;;;;;;4.22;1.85;;;;;;;;;;5071523;28;20021;-79
2023/04/22 13:55:15;;;;;;;7.28;2.42;;;;;;;;;;5071618;28;20132;-81
2023/04/22 13:57:41;;;;;;;6.05;2.20;;;;;;;;;;5049819;28;20041;-81
2023/04/22 14:00:10;;;;;;;4.80;1.90;;;;;;;;;;5053902;28;20101;-81
2023/04/22 14:02:36;;;;;;;7.20;3.83;;;;;;;;;;5053469;28;20021;-80
2023/04/22 14:05:03;;;;;;;2.28;1.88;;;;;;;;;;5054413;28;20047;-81
2023/04/22 14:07:29;;;;;;;3.25;2.05;;;;;;;;;;5054845;28;20757;-81
2023/04/22 14:09:55;;;;;;;3.85;1.70;;;;;;;;;;5071485;28;20056;-83
2023/04/22 14:12:21;;;;;;;4.00;1.75;;;;;;;;;;5072655;28;20033;-81
2023/04/22 14:14:47;;;;;;;5.97;1.80;;;;;;;;;;5071765;28;20013;-83
2023/04/22 14:17:13;;;;;;;3.90;1.90;;;;;;;;;;5049618;28;20286;-81
2023/04/22 14:19:39;;;;;;;3.17;1.70;;;;;;;;;;5051417;28;20025;-81
2023/04/22 14:22:06;;;;;;;3.67;2.00;;;;;;;;;;5048821;28;20045;-81
2023/04/22 14:24:32;;;;;;;5.75;2.53;;;;;;;;;;5053348;28;20115;-82
2023/04/22 14:27:00;;;;;;;4.10;2.70;;;;;;;;;;5049016;28;20500;-82
2023/04/22 14:29:28;;;;;;;6.70;2.65;;;;;;;;;;5071930;28;20071;-83
2023/04/22 14:31:57;;;;;;;3.88;2.38;;;;;;;;;;5046858;28;20045;-79
2023/04/22 14:34:25;;;;;;;4.05;2.42;;;;;;;;;;5057697;28;20025;-79
2023/04/22 14:36:51;;;;;;;7.07;1.85;;;;;;;;;;5071220;28;20475;-84
2023/04/22 14:39:17;;;;;;;2.35;1.45;;;;;;;;;;5072570;28;20021;-81
2023/04/22 14:41:44;;;;;;;2.60;1.40;;;;;;;;;;5049111;28;20056;-80